createdAt,value
2018-02-11T10:54:28.872Z,18.50
2018-02-11T10:58:47.661Z,31.03
2018-02-11T11:01:15.434Z,29.07
2018-02-11T11:03:46.808Z,32.90
2018-02-11T11:06:14.628Z,32.20
2018-02-11T11:08:42.388Z,33.63
2018-02-11T11:11:10.149Z,30.93
2018-02-11T11:13:37.949Z,35.57
2018-02-11T11:16:05.707Z,35.83
2018-02-11T11:18:33.468Z,37.90
2018-02-11T11:21:01.248Z,37.30
2018-02-11T11:23:29.008Z,37.33
2018-02-11T11:25:56.808Z,37.60
2018-02-11T11:28:24.571Z,32.70
2018-02-11T11:30:52.368Z,34.90
2018-02-11T11:33:20.111Z,33.43
2018-02-11T11:35:48.587Z,33.67
2018-02-11T11:38:16.369Z,36.10
2018-02-11T11:40:44.874Z,36.07
2018-02-11T11:43:12.631Z,33.27
2018-02-11T11:45:41.169Z,32.93
2018-02-11T11:48:08.912Z,36.00
2018-02-11T11:50:37.490Z,32.87
2018-02-11T11:53:05.309Z,35.13
2018-02-11T11:55:33.813Z,34.47
2018-02-11T11:58:01.631Z,37.67
2018-02-11T12:00:29.339Z,35.10
2018-02-11T12:02:57.127Z,33.70
2018-02-11T12:05:24.848Z,40.20
2018-02-11T12:07:53.172Z,33.93
2018-02-11T12:10:20.948Z,35.53
2018-02-11T12:12:48.803Z,33.70
2018-02-11T12:15:16.568Z,39.07
2018-02-11T12:17:44.485Z,34.63
2018-02-11T12:20:12.271Z,33.13
2018-02-11T12:22:40.030Z,33.60
2018-02-11T12:25:07.833Z,32.20
2018-02-11T12:27:35.570Z,29.13
2018-02-11T12:30:03.330Z,28.30
2018-02-11T12:32:31.094Z,29.60
2018-02-11T12:34:58.929Z,28.30
2018-02-11T12:37:26.694Z,30.77
2018-02-11T12:39:55.249Z,26.43
2018-02-11T12:42:23.029Z,24.90
2018-02-11T12:47:22.886Z,44.33
2018-02-11T12:49:50.967Z,42.83
2018-02-11T12:52:18.887Z,29.77
2018-02-11T12:54:46.616Z,39.67
2018-02-11T12:57:15.368Z,31.43
2018-02-11T12:59:43.271Z,31.70
2018-02-11T13:02:11.110Z,30.97
2018-02-11T13:04:38.988Z,29.90
2018-02-11T13:07:07.688Z,30.57
2018-02-11T13:09:36.286Z,36.70
2018-02-11T13:12:04.206Z,30.07
2018-02-11T13:14:32.788Z,31.27
2018-02-11T13:17:01.006Z,31.57
2018-02-11T13:19:28.875Z,30.53
2018-02-11T13:21:56.737Z,30.07
2018-02-11T13:30:03.000Z,32.67
2018-02-11T13:32:30.708Z,33.80
2018-02-11T13:34:58.449Z,34.70
2018-02-11T13:37:26.175Z,35.87
2018-02-11T13:39:53.926Z,33.90
2018-02-11T13:42:23.988Z,37.13
2018-02-11T13:44:52.016Z,33.57
2018-02-11T13:47:19.813Z,32.63
2018-02-11T13:49:56.377Z,33.60
2018-02-11T13:52:24.136Z,34.03
2018-02-11T13:54:53.165Z,33.33
2018-02-11T13:57:21.677Z,37.10
2018-02-11T13:59:49.610Z,33.90
2018-02-11T14:02:17.786Z,34.83
2018-02-11T14:04:46.069Z,34.07
2018-02-11T14:07:14.010Z,34.00
2018-02-11T14:09:41.829Z,36.53
2018-02-11T14:12:09.669Z,34.87
2018-02-11T14:14:37.490Z,36.57
2018-02-11T14:17:05.329Z,35.37
2018-02-11T14:19:33.293Z,33.40
2018-02-11T14:22:01.331Z,33.70
2018-02-11T14:24:29.391Z,32.97
2018-02-11T14:26:57.584Z,30.93
2018-02-11T14:29:25.672Z,31.67
2018-02-11T14:31:53.611Z,28.83
2018-02-11T14:34:21.527Z,33.23
2018-02-11T14:36:49.246Z,36.73
2018-02-11T14:39:17.188Z,33.87
2018-02-11T14:41:44.815Z,29.23
2018-02-11T14:44:12.548Z,30.50
2018-02-11T14:46:40.247Z,31.77
2018-02-11T14:49:08.094Z,36.83
2018-02-11T14:51:36.268Z,35.23
2018-02-11T14:54:04.114Z,35.73
2018-02-11T14:56:31.869Z,33.30
2018-02-11T14:58:59.873Z,36.57
2018-02-11T15:01:27.752Z,36.63
2018-02-11T15:03:55.586Z,38.77
2018-02-11T15:06:23.471Z,37.10
2018-02-11T15:11:47.388Z,42.40
2018-02-11T15:14:32.545Z,40.50
2018-02-11T15:17:01.390Z,38.83
2018-02-11T15:19:29.315Z,46.07
2018-02-11T15:21:57.010Z,38.40
2018-02-11T15:24:25.190Z,39.00
2018-02-11T15:26:53.031Z,40.50
2018-02-11T15:29:21.311Z,37.20
2018-02-11T15:31:49.033Z,35.57
2018-02-11T15:34:16.853Z,40.07
2018-02-11T15:36:45.533Z,39.90
2018-02-11T15:39:13.345Z,38.73
2018-02-11T15:41:41.173Z,37.33
2018-02-11T15:44:10.210Z,37.87
2018-02-11T15:46:38.092Z,40.57
2018-02-11T15:49:06.008Z,47.00
2018-02-11T15:51:33.690Z,38.87
2018-02-11T15:54:01.540Z,41.33
2018-02-11T15:56:29.291Z,47.33
2018-02-11T15:58:57.331Z,42.43
2018-02-11T16:01:26.475Z,41.13
2018-02-11T16:03:54.411Z,43.63
2018-02-11T16:06:23.091Z,45.93
2018-02-11T16:08:50.971Z,47.00
2018-02-11T16:11:19.134Z,44.13
2018-02-11T16:13:46.893Z,44.93
2018-02-11T16:16:15.129Z,45.77
2018-02-11T16:18:43.770Z,52.93
2018-02-11T16:21:12.350Z,52.67
2018-02-11T16:23:40.230Z,50.40
2018-02-11T16:26:08.311Z,47.87
2018-02-11T16:28:36.189Z,66.13
2018-02-11T16:31:04.412Z,69.77
2018-02-11T16:33:32.251Z,91.40
2018-02-11T16:36:00.008Z,88.50
2018-02-11T16:38:27.805Z,87.17
2018-02-11T16:40:55.513Z,52.10
2018-02-11T16:43:23.248Z,49.20
2018-02-11T16:45:51.331Z,51.33
2018-02-11T16:48:19.171Z,47.47
2018-02-11T16:50:47.148Z,47.23
2018-02-11T16:53:14.989Z,51.80
2018-02-11T16:55:42.828Z,50.80
2018-02-11T16:58:10.509Z,55.47
2018-02-11T17:00:38.294Z,48.53
2018-02-11T17:03:06.449Z,46.27
2018-02-11T17:05:34.668Z,46.93
2018-02-11T17:08:02.851Z,48.43
2018-02-11T17:10:30.800Z,48.87
2018-02-11T17:12:58.791Z,48.53
2018-02-11T17:15:26.867Z,49.40
2018-02-11T17:17:55.167Z,45.47
2018-02-11T17:20:22.872Z,45.27
2018-02-11T17:22:50.610Z,45.13
2018-02-11T17:25:18.353Z,49.77
2018-02-11T17:27:46.491Z,46.37
2018-02-11T17:30:14.256Z,44.20
2018-02-11T17:32:42.068Z,48.63
2018-02-11T17:35:09.867Z,43.80
2018-02-11T17:37:37.647Z,49.03
2018-02-11T17:40:05.468Z,46.47
2018-02-11T17:42:33.258Z,45.50
2018-02-11T17:45:01.031Z,42.90
2018-02-11T17:47:28.810Z,40.60
2018-02-11T17:49:56.669Z,46.90
2018-02-11T17:52:24.450Z,41.17
2018-02-11T17:54:52.256Z,41.60
2018-02-11T17:57:20.156Z,44.70
2018-02-11T17:59:48.036Z,38.37
2018-02-11T18:02:15.917Z,35.80
2018-02-11T18:04:46.356Z,38.37
2018-02-11T18:07:14.958Z,40.23
2018-02-11T18:09:42.913Z,40.10
2018-02-11T18:12:11.208Z,38.57
2018-02-11T18:14:39.052Z,38.63
2018-02-11T18:17:08.833Z,40.77
2018-02-11T18:19:41.530Z,39.03
2018-02-11T18:22:10.648Z,39.57
2018-02-11T18:24:39.078Z,41.73
2018-02-11T18:27:08.215Z,40.33
2018-02-11T18:29:37.934Z,44.20
2018-02-11T18:32:06.655Z,44.83
2018-02-11T18:34:34.871Z,41.87
2018-02-11T18:37:03.435Z,43.20
2018-02-11T18:39:31.372Z,40.10
2018-02-11T18:42:08.234Z,39.77
2018-02-11T18:44:42.269Z,41.87
2018-02-11T18:47:10.432Z,43.73
2018-02-11T18:49:40.550Z,46.77
2018-02-11T18:52:10.011Z,40.53
2018-02-11T18:54:38.194Z,42.60
2018-02-11T18:57:07.901Z,41.77
2018-02-11T18:59:36.092Z,45.00
2018-02-11T19:02:03.848Z,51.03
2018-02-11T19:04:31.555Z,43.20
2018-02-11T19:07:02.213Z,45.97
2018-02-11T19:09:30.809Z,48.27
2018-02-11T19:11:58.529Z,44.20
2018-02-11T19:14:27.091Z,47.37
2018-02-11T19:16:54.883Z,41.87
2018-02-11T19:19:22.723Z,41.57
2018-02-11T19:21:52.852Z,43.63
2018-02-11T19:24:20.709Z,45.30
2018-02-11T19:26:48.494Z,44.00
2018-02-11T19:29:16.330Z,41.27
2018-02-11T19:31:44.085Z,41.43
2018-02-11T19:34:12.654Z,42.90
2018-02-11T19:36:40.609Z,44.53
2018-02-11T19:39:08.634Z,45.10
2018-02-11T19:41:36.937Z,41.47
2018-02-11T19:44:04.951Z,39.37
2018-02-11T19:46:32.840Z,42.27
2018-02-11T19:49:01.410Z,36.93
2018-02-11T19:51:29.173Z,38.97
2018-02-11T19:53:57.073Z,39.83
2018-02-11T19:56:24.828Z,43.47
2018-02-11T19:58:54.143Z,43.77
2018-02-11T20:01:31.080Z,41.17
2018-02-11T20:03:59.669Z,41.07
2018-02-11T20:06:28.173Z,42.30
2018-02-11T20:08:56.293Z,40.37
2018-02-11T20:11:24.151Z,41.30
2018-02-11T20:13:51.974Z,40.23
2018-02-11T20:16:20.258Z,39.70
2018-02-11T20:18:48.065Z,42.97
2018-02-11T20:21:16.131Z,40.53
2018-02-11T20:23:44.811Z,38.57
2018-02-11T20:26:12.651Z,38.43
2018-02-11T20:28:40.441Z,41.03
2018-02-11T20:31:08.229Z,39.60
2018-02-11T20:33:36.003Z,37.47
2018-02-11T20:36:04.161Z,39.53
2018-02-11T20:38:31.968Z,40.57
2018-02-11T20:40:59.756Z,41.50
2018-02-11T20:43:27.526Z,40.87
2018-02-11T20:45:55.250Z,39.60
2018-02-11T20:48:27.695Z,40.03
2018-02-11T20:50:55.390Z,36.80
2018-02-11T20:53:23.170Z,41.70
2018-02-11T20:55:50.940Z,66.00
2018-02-11T20:58:18.744Z,63.43
2018-02-11T21:00:46.451Z,44.43
2018-02-11T21:03:14.286Z,42.90
2018-02-11T21:05:42.055Z,42.07
2018-02-11T21:08:10.586Z,46.67
2018-02-11T21:10:38.376Z,36.77
2018-02-11T21:13:06.170Z,40.93
2018-02-11T21:15:33.987Z,41.30
2018-02-11T21:18:02.106Z,42.37
2018-02-11T21:20:30.534Z,39.40
2018-02-11T21:22:58.542Z,42.40
2018-02-11T21:25:26.412Z,37.70
2018-02-11T21:27:54.552Z,43.00
2018-02-11T21:30:22.374Z,41.57
2018-02-11T21:32:50.249Z,40.63
2018-02-11T21:35:17.989Z,40.37
2018-02-11T21:37:45.870Z,35.13
2018-02-11T21:40:13.669Z,42.40
2018-02-11T21:42:41.509Z,39.50
2018-02-11T21:45:09.537Z,39.37
2018-02-11T21:47:37.685Z,44.53
2018-02-11T21:50:05.506Z,39.00
2018-02-11T21:52:34.551Z,45.10
2018-02-11T21:55:02.265Z,39.43
2018-02-11T21:57:30.747Z,45.10
2018-02-11T21:59:58.506Z,45.93
2018-02-11T22:02:26.242Z,40.93
2018-02-11T22:04:54.746Z,45.73
2018-02-11T22:07:22.726Z,46.40
2018-02-11T22:09:50.676Z,46.37
2018-02-11T22:12:18.581Z,45.27
2018-02-11T22:14:46.454Z,48.73
2018-02-11T22:17:14.254Z,50.43
2018-02-11T22:19:41.929Z,49.87
2018-02-11T22:22:09.846Z,48.20
2018-02-11T22:24:37.660Z,46.23
2018-02-11T22:27:05.451Z,42.70
2018-02-11T22:29:33.270Z,46.83
2018-02-11T22:32:01.973Z,48.10
2018-02-11T22:34:30.094Z,47.30
2018-02-11T22:36:58.250Z,47.13
2018-02-11T22:39:26.290Z,45.93
2018-02-11T22:41:54.330Z,56.23
2018-02-11T22:44:22.192Z,45.60
2018-02-11T22:46:50.191Z,51.73
2018-02-11T22:49:18.371Z,44.23
2018-02-11T22:51:46.490Z,48.47
2018-02-11T22:54:14.410Z,43.37
2018-02-11T22:56:42.532Z,43.77
2018-02-11T22:59:10.491Z,45.97
2018-02-11T23:01:39.059Z,48.67
2018-02-11T23:04:06.940Z,46.17
2018-02-11T23:06:34.969Z,45.17
2018-02-11T23:09:03.069Z,47.80
2018-02-11T23:11:30.889Z,44.10
2018-02-11T23:14:00.075Z,46.90
2018-02-11T23:16:28.817Z,45.33
2018-02-11T23:18:56.628Z,50.57
2018-02-11T23:21:25.097Z,49.10
2018-02-11T23:23:53.269Z,45.60
2018-02-11T23:26:21.449Z,45.63
2018-02-11T23:28:50.531Z,46.83
2018-02-11T23:31:18.470Z,49.40
2018-02-11T23:33:46.429Z,46.40
2018-02-11T23:36:14.531Z,44.03
2018-02-11T23:38:42.669Z,47.03
2018-02-11T23:41:11.229Z,43.87
2018-02-11T23:43:39.279Z,45.93
2018-02-11T23:46:07.338Z,43.27
2018-02-11T23:48:35.509Z,44.97
2018-02-11T23:51:03.497Z,46.27
2018-02-11T23:53:36.617Z,46.03
2018-02-11T23:56:04.868Z,45.53
2018-02-11T23:58:34.533Z,48.03
